createdAt,value
2016-04-07T00:00:00.041Z,58.72
2016-04-07T00:01:00.058Z,59.19
2016-04-07T00:02:00.061Z,58.81
2016-04-07T00:03:00.048Z,59.19
2016-04-07T00:04:00.051Z,58.91
2016-04-07T00:05:00.053Z,59
2016-04-07T00:06:00.041Z,59.19
2016-04-07T00:07:00.059Z,58.24
2016-04-07T00:08:00.047Z,58.81
2016-04-07T00:09:00.064Z,58.43
2016-04-07T00:10:00.052Z,58.72
2016-04-07T00:11:00.055Z,59.48
2016-04-07T00:12:00.073Z,59.19
2016-04-07T00:13:00.060Z,58.43
2016-04-07T00:14:00.047Z,58.62
2016-04-07T00:15:00.096Z,58.52
2016-04-07T00:16:00.076Z,57.76
2016-04-07T00:17:00.123Z,58.14
2016-04-07T00:18:00.170Z,58.72
2016-04-07T00:19:00.217Z,59.19
2016-04-07T00:20:00.295Z,58.72
2016-04-07T00:21:00.295Z,58.81
2016-04-07T00:22:00.299Z,57.95
2016-04-07T00:23:00.317Z,58.04
2016-04-07T00:24:00.335Z,57.67
2016-04-07T00:25:00.338Z,57.76
2016-04-07T00:26:00.367Z,57.67
2016-04-07T00:27:00.359Z,57.76
2016-04-07T00:28:00.367Z,57.7
2016-04-07T00:29:00.393Z,57.7
2016-04-07T00:30:00.384Z,57.67
2016-04-07T00:31:00.391Z,57
2016-04-07T00:32:00.380Z,57.6
2016-04-07T00:33:00.384Z,57.03
2016-04-07T00:34:00.388Z,56.93
2016-04-07T00:35:00.393Z,57.12
2016-04-07T00:36:00.397Z,57.22
2016-04-07T00:37:00.386Z,57.03
2016-04-07T00:38:00.389Z,56.93
2016-04-07T00:39:00.408Z,57.03
2016-04-07T00:40:00.396Z,56.93
2016-04-07T00:41:00.400Z,56.81
2016-04-07T00:42:00.402Z,57.5
2016-04-07T00:43:00.406Z,57.6
2016-04-07T00:44:00.409Z,57.6
2016-04-07T00:45:00.411Z,57.79
2016-04-07T00:46:00.399Z,57.89
2016-04-07T00:47:00.417Z,57.76
2016-04-07T00:48:00.403Z,57.89
2016-04-07T00:49:00.390Z,58.36
2016-04-07T00:50:00.409Z,57.98
2016-04-07T00:51:00.412Z,57.86
2016-04-07T00:52:00.398Z,57.86
2016-04-07T00:53:00.401Z,57.86
2016-04-07T00:54:00.404Z,58.07
2016-04-07T00:55:00.423Z,58.17
2016-04-07T00:56:00.394Z,58.07
2016-04-07T00:57:00.412Z,58.36
2016-04-07T00:58:00.400Z,58.24
2016-04-07T00:59:00.402Z,58.04
2016-04-07T01:00:00.405Z,58.72
2016-04-07T01:01:00.392Z,58.62
2016-04-07T01:02:00.395Z,58.43
2016-04-07T01:03:00.397Z,58.62
2016-04-07T01:04:00.400Z,58.81
2016-04-07T01:05:00.388Z,58.91
2016-04-07T01:06:00.422Z,59.57
2016-04-07T01:07:00.408Z,59.28
2016-04-07T01:08:00.411Z,59.28
2016-04-07T01:09:00.399Z,59.28
2016-04-07T01:10:00.385Z,59.38
2016-04-07T01:11:00.419Z,59.19
2016-04-07T01:12:00.407Z,59.19
2016-04-07T01:13:00.393Z,59.48
2016-04-07T01:14:00.427Z,59.57
2016-04-07T01:15:00.399Z,59.38
2016-04-07T01:16:00.401Z,59.57
2016-04-07T01:17:00.387Z,59.48
2016-04-07T01:18:00.406Z,59.48
2016-04-07T01:19:00.409Z,59.67
2016-04-07T01:20:00.396Z,59.67
2016-04-07T01:21:00.399Z,59.28
2016-04-07T01:22:00.417Z,59.19
2016-04-07T01:23:00.404Z,59.57
2016-04-07T01:24:00.391Z,59.67
2016-04-07T01:25:00.394Z,59.57
2016-04-07T01:26:00.412Z,60.14
2016-04-07T01:27:00.415Z,60.14
2016-04-07T01:28:00.402Z,60.14
2016-04-07T01:29:00.389Z,59.95
2016-04-07T01:30:00.408Z,59.67
2016-04-07T01:31:00.394Z,59.76
2016-04-07T01:32:00.428Z,60.43
2016-04-07T01:33:00.400Z,60.62
2016-04-07T01:34:00.386Z,60.24
2016-04-07T01:35:00.421Z,60.24
2016-04-07T01:36:00.439Z,60.52
2016-04-07T01:37:00.411Z,60.33
2016-04-07T01:38:00.414Z,60.52
2016-04-07T01:39:00.385Z,60.62
2016-04-07T01:40:00.403Z,60.14
2016-04-07T01:41:00.405Z,60.33
2016-04-07T01:42:00.393Z,60.33
2016-04-07T01:43:00.396Z,60.72
2016-04-07T01:44:00.383Z,60.62
2016-04-07T01:45:00.401Z,60.72
2016-04-07T01:46:00.404Z,60.52
2016-04-07T01:47:00.390Z,60.14
2016-04-07T01:48:00.378Z,60.62
2016-04-07T01:49:00.396Z,60.52
2016-04-07T01:50:00.384Z,60.72
2016-04-07T01:51:00.386Z,60.43
2016-04-07T01:52:00.389Z,60.33
2016-04-07T01:53:00.392Z,60.43
2016-04-07T01:54:00.409Z,60.91
2016-04-07T01:55:00.397Z,61.29
2016-04-07T01:56:00.415Z,61
2016-04-07T01:57:00.402Z,61.38
2016-04-07T01:58:00.405Z,61.19
2016-04-07T01:59:00.407Z,60.72
2016-04-07T02:00:00.238Z,61.29
2016-04-07T02:01:00.381Z,61.29
2016-04-07T02:02:00.384Z,61.86
2016-04-07T02:03:00.386Z,61.48
2016-04-07T02:04:00.389Z,61.67
2016-04-07T02:05:00.392Z,61.73
2016-04-07T02:06:00.410Z,61.45
2016-04-07T02:07:00.382Z,61.38
2016-04-07T02:08:00.400Z,61.76
2016-04-07T02:09:00.388Z,62.3
2016-04-07T02:10:00.391Z,61.96
2016-04-07T02:11:00.377Z,61.48
2016-04-07T02:12:00.395Z,61.45
2016-04-07T02:13:00.399Z,61.57
2016-04-07T02:14:00.385Z,62.15
2016-04-07T02:15:00.372Z,61.96
2016-04-07T02:16:00.391Z,62.34
2016-04-07T02:17:00.393Z,61.96
2016-04-07T02:18:00.380Z,61.35
2016-04-07T02:19:00.399Z,61.57
2016-04-07T02:20:00.370Z,61.54
2016-04-07T02:21:00.420Z,62.02
2016-04-07T02:22:00.391Z,62.24
2016-04-07T02:23:00.378Z,62.3
2016-04-07T02:24:00.381Z,62.02
2016-04-07T02:25:00.399Z,62.3
2016-04-07T02:26:00.402Z,62.12
2016-04-07T02:27:00.389Z,62.12
2016-04-07T02:28:00.376Z,62.49
2016-04-07T02:29:00.379Z,62.21
2016-04-07T02:30:00.382Z,62.4
2016-04-07T02:31:00.400Z,62.68
2016-04-07T02:32:00.402Z,62.34
2016-04-07T02:33:00.389Z,62.21
2016-04-07T02:34:00.377Z,62.3
2016-04-07T02:35:00.380Z,62.4
2016-04-07T02:36:00.383Z,62.3
2016-04-07T02:37:00.385Z,62.3
2016-04-07T02:38:00.371Z,62.4
2016-04-07T02:39:00.405Z,62.68
2016-04-07T02:40:00.377Z,62.97
2016-04-07T02:41:00.395Z,62.88
2016-04-07T02:42:00.382Z,62.88
2016-04-07T02:43:00.401Z,63.07
2016-04-07T02:44:00.372Z,62.68
2016-04-07T02:45:00.390Z,62.88
2016-04-07T02:46:00.377Z,63.17
2016-04-07T02:47:00.365Z,63.35
2016-04-07T02:48:00.383Z,64.31
2016-04-07T02:49:00.385Z,63.54
2016-04-07T02:50:00.373Z,63.07
2016-04-07T02:51:00.376Z,63.26
2016-04-07T02:52:00.378Z,63.07
2016-04-07T02:53:00.381Z,63.17
2016-04-07T02:54:00.493Z,62.97
2016-04-07T02:55:00.387Z,62.97
2016-04-07T02:56:00.373Z,62.68
2016-04-07T02:57:00.360Z,63.07
2016-04-07T02:58:00.378Z,62.88
2016-04-07T02:59:00.365Z,63.07
2016-04-07T03:00:00.368Z,63.17
2016-04-07T03:01:00.356Z,63.17
2016-04-07T03:02:00.358Z,62.59
2016-04-07T03:03:00.361Z,63.17
2016-04-07T03:04:00.379Z,62.68
2016-04-07T03:05:00.351Z,62.59
2016-04-07T03:06:00.369Z,62.62
2016-04-07T03:07:00.356Z,62.49
2016-04-07T03:08:00.375Z,62.78
2016-04-07T03:09:00.314Z,62.97
2016-04-07T03:10:00.364Z,63.17
2016-04-07T03:11:00.352Z,62.68
2016-04-07T03:12:00.370Z,62.78
2016-04-07T03:13:00.356Z,62.91
2016-04-07T03:14:00.359Z,62.52
2016-04-07T03:15:00.362Z,62.3
2016-04-07T03:16:00.365Z,62.52
2016-04-07T03:17:00.351Z,62.62
2016-04-07T03:18:00.370Z,62.24
2016-04-07T03:19:00.356Z,62.24
2016-04-07T03:20:00.360Z,62.59
2016-04-07T03:21:00.362Z,62.15
2016-04-07T03:22:00.365Z,62.43
2016-04-07T03:23:00.351Z,62.43
2016-04-07T03:24:00.401Z,61.67
2016-04-07T03:25:00.357Z,61.57
2016-04-07T03:26:00.376Z,61
2016-04-07T03:27:00.362Z,60.62
2016-04-07T03:28:00.365Z,60.81
2016-04-07T03:29:00.353Z,60.72
2016-04-07T03:30:00.355Z,60.52
2016-04-07T03:31:00.358Z,60.52
2016-04-07T03:32:00.361Z,60.33
2016-04-07T03:33:00.379Z,59.86
2016-04-07T03:34:00.366Z,59.95
2016-04-07T03:35:00.384Z,60.05
2016-04-07T03:36:00.356Z,59.86
2016-04-07T03:37:00.375Z,59.76
2016-04-07T03:38:00.345Z,59.57
2016-04-07T03:39:00.427Z,59.19
2016-04-07T03:40:00.351Z,59.19
2016-04-07T03:41:00.338Z,59.57
2016-04-07T03:42:00.356Z,60.05
2016-04-07T03:43:00.358Z,59.48
2016-04-07T03:44:00.362Z,59.57
2016-04-07T03:45:00.347Z,59.67
2016-04-07T03:46:00.349Z,59.67
2016-04-07T03:47:00.352Z,59.76
2016-04-07T03:48:00.355Z,59.19
2016-04-07T03:49:00.387Z,59.19
2016-04-07T03:50:00.343Z,59.48
2016-04-07T03:51:00.362Z,59.67
2016-04-07T03:52:00.365Z,59.86
2016-04-07T03:53:00.351Z,59.67
2016-04-07T03:54:00.277Z,59.48
2016-04-07T03:55:00.358Z,59.57
2016-04-07T03:56:00.360Z,59.79
2016-04-07T03:57:00.362Z,59.95
2016-04-07T03:58:00.365Z,60.52
2016-04-07T03:59:00.353Z,60.33
2016-04-07T04:00:00.355Z,60.33
2016-04-07T04:01:00.358Z,60.33
2016-04-07T04:02:00.376Z,60.81
2016-04-07T04:03:00.347Z,60.24
2016-04-07T04:04:00.366Z,59.86
2016-04-07T04:05:00.353Z,60.05
2016-04-07T04:06:00.340Z,60.05
2016-04-07T04:07:00.202Z,60.08
2016-04-07T04:08:00.361Z,60.43
2016-04-07T04:09:00.395Z,60.33
2016-04-07T04:10:00.351Z,60.43
2016-04-07T04:11:00.353Z,60.33
2016-04-07T04:12:00.372Z,60.43
2016-04-07T04:13:00.359Z,60.14
2016-04-07T04:14:00.361Z,60.62
2016-04-07T04:15:00.349Z,60.43
2016-04-07T04:16:00.367Z,60.24
2016-04-07T04:17:00.354Z,60.52
2016-04-07T04:18:00.341Z,60.62
2016-04-07T04:19:00.360Z,60.52
2016-04-07T04:20:00.363Z,60.91
2016-04-07T04:21:00.349Z,60.81
2016-04-07T04:22:00.368Z,61.19
2016-04-07T04:23:00.355Z,61.29
2016-04-07T04:24:00.404Z,61.1
2016-04-07T04:25:00.360Z,61
2016-04-07T04:26:00.347Z,61.38
2016-04-07T04:27:00.349Z,61.57
2016-04-07T04:28:00.368Z,61.86
2016-04-07T04:29:00.355Z,61.57
2016-04-07T04:30:00.343Z,61.76
2016-04-07T04:31:00.359Z,61.57
2016-04-07T04:32:00.347Z,61.57
2016-04-07T04:33:00.350Z,61.48
2016-04-07T04:34:00.368Z,61.76
2016-04-07T04:35:00.418Z,61.48
2016-04-07T04:36:00.452Z,61.57
2016-04-07T04:37:00.361Z,62.05
2016-04-07T04:38:00.363Z,62.15
2016-04-07T04:39:00.428Z,62.43
2016-04-07T04:40:00.353Z,62.15
2016-04-07T04:41:00.356Z,62.34
2016-04-07T04:42:00.359Z,62.34
2016-04-07T04:43:00.361Z,62.24
2016-04-07T04:44:00.363Z,62.81
2016-04-07T04:44:59.616Z,62.62
2016-04-07T04:46:00.338Z,62.72
2016-04-07T04:47:00.372Z,62.24
2016-04-07T04:48:00.343Z,62.05
2016-04-07T04:49:00.362Z,62.24
2016-04-07T04:50:00.349Z,62.34
2016-04-07T04:51:00.352Z,62.43
2016-04-07T04:52:00.354Z,62.43
2016-04-07T04:53:00.357Z,62.52
2016-04-07T04:54:00.422Z,62.52
2016-04-07T04:55:00.347Z,62.24
2016-04-07T04:56:00.349Z,62.62
2016-04-07T04:57:00.368Z,62.34
2016-04-07T04:58:00.355Z,62.15
2016-04-07T04:59:00.342Z,62.81
2016-04-07T05:00:00.360Z,62.62
2016-04-07T05:01:00.347Z,62.91
2016-04-07T05:02:00.350Z,63
2016-04-07T05:03:00.368Z,62.62
2016-04-07T05:04:00.371Z,62.52
2016-04-07T05:05:00.342Z,62.34
2016-04-07T05:06:00.361Z,62.91
2016-04-07T05:07:00.348Z,62.62
2016-04-07T05:08:00.351Z,62.52
2016-04-07T05:09:00.400Z,62.52
2016-04-07T05:10:00.372Z,63.2
2016-04-07T05:11:00.374Z,63.29
2016-04-07T05:12:00.361Z,63.57
2016-04-07T05:13:00.348Z,62.91
2016-04-07T05:14:00.366Z,63.39
2016-04-07T05:15:00.354Z,64.24
2016-04-07T05:16:00.356Z,64.91
2016-04-07T05:17:00.359Z,65.29
2016-04-07T05:18:00.361Z,64.05
2016-04-07T05:19:00.349Z,64.24
2016-04-07T05:20:00.399Z,64.53
2016-04-07T05:21:00.401Z,64.81
2016-04-07T05:22:00.341Z,64.62
2016-04-07T05:23:00.188Z,65.2
2016-04-07T05:24:00.331Z,65.67
2016-04-07T05:25:00.380Z,66.44
2016-04-07T05:26:00.351Z,66.34
2016-04-07T05:27:00.370Z,65.67
2016-04-07T05:28:00.357Z,65.48
2016-04-07T05:29:00.360Z,65.2
2016-04-07T05:30:00.363Z,64.81
2016-04-07T05:31:00.365Z,64.62
2016-04-07T05:32:00.368Z,64.24
2016-04-07T05:33:00.355Z,64.81
2016-04-07T05:34:00.373Z,65.48
2016-04-07T05:35:00.361Z,64.72
2016-04-07T05:36:00.364Z,65.58
2016-04-07T05:37:00.366Z,67.48
2016-04-07T05:38:00.353Z,67.77
2016-04-07T05:39:00.340Z,68.24
2016-04-07T05:40:00.359Z,68.82
2016-04-07T05:41:00.361Z,69.48
2016-04-07T05:42:00.364Z,72.31
2016-04-07T05:43:00.350Z,73.83
2016-04-07T05:44:00.369Z,75.36
2016-04-07T05:45:00.372Z,76.31
2016-04-07T05:46:00.344Z,77.89
2016-04-07T05:47:00.361Z,77.61
2016-04-07T05:48:00.364Z,79.03
2016-04-07T05:49:00.336Z,79.6
2016-04-07T05:50:00.339Z,80.04
2016-04-07T05:51:00.341Z,79.8
2016-04-07T05:52:00.344Z,80.27
2016-04-07T05:53:00.363Z,79.66
2016-04-07T05:54:00.349Z,79.75
2016-04-07T05:55:00.336Z,79.28
2016-04-07T05:56:00.355Z,79.66
2016-04-07T05:57:00.358Z,79.57
2016-04-07T05:58:00.329Z,78.9
2016-04-07T05:59:00.346Z,79.57
2016-04-07T06:00:00.334Z,79.75
2016-04-07T06:01:00.352Z,78.14
2016-04-07T06:02:00.354Z,78.8
2016-04-07T06:03:00.326Z,77.76
2016-04-07T06:04:00.329Z,78.42
2016-04-07T06:05:00.332Z,78.52
2016-04-07T06:06:00.334Z,78.04
2016-04-07T06:07:00.337Z,78.99
2016-04-07T06:08:00.324Z,78.8
2016-04-07T06:09:00.331Z,77.85
2016-04-07T06:10:00.334Z,78.33
2016-04-07T06:11:00.322Z,78.61
2016-04-07T06:12:00.325Z,78.9
2016-04-07T06:13:00.327Z,77.47
2016-04-07T06:14:00.330Z,78.14
2016-04-07T06:15:00.333Z,78.42
2016-04-07T06:16:00.319Z,79.47
2016-04-07T06:17:00.322Z,79.75
2016-04-07T06:18:00.310Z,80
2016-04-07T06:19:00.312Z,79.57
2016-04-07T06:20:00.315Z,79.28
2016-04-07T06:21:00.318Z,79.85
2016-04-07T06:22:00.321Z,79.09
2016-04-07T06:23:00.307Z,79.28
2016-04-07T06:24:00.310Z,79.09
2016-04-07T06:25:00.343Z,80.13
2016-04-07T06:26:00.315Z,79.19
2016-04-07T06:27:00.317Z,79.38
2016-04-07T06:28:00.304Z,79.62
2016-04-07T06:29:00.307Z,79.28
2016-04-07T06:30:00.295Z,78.61
2016-04-07T06:31:00.312Z,79.38
2016-04-07T06:32:00.315Z,79.38
2016-04-07T06:33:00.287Z,78.77
2016-04-07T06:34:00.305Z,79.28
2016-04-07T06:35:00.308Z,79.38
2016-04-07T06:36:00.295Z,79.38
2016-04-07T06:37:00.298Z,79.47
2016-04-07T06:38:00.284Z,78.99
2016-04-07T06:39:00.287Z,78.14
2016-04-07T06:40:00.305Z,77.47
2016-04-07T06:41:00.293Z,77.95
2016-04-07T06:42:00.139Z,77.37
2016-04-07T06:43:00.298Z,76.61
2016-04-07T06:44:00.286Z,76.23
2016-04-07T06:45:00.273Z,77.76
2016-04-07T06:46:00.275Z,77.19
2016-04-07T06:47:00.277Z,76.33
2016-04-07T06:48:00.296Z,75.85
2016-04-07T06:49:00.283Z,77
2016-04-07T06:50:00.286Z,75.38
2016-04-07T06:51:00.274Z,75.38
2016-04-07T06:52:00.291Z,75.28
2016-04-07T06:53:00.294Z,74.99
2016-04-07T06:54:00.265Z,74.37
2016-04-07T06:55:00.299Z,74.46
2016-04-07T06:56:00.286Z,74.75
2016-04-07T06:57:00.273Z,74.43
2016-04-07T06:58:00.292Z,73.51
2016-04-07T06:59:00.279Z,74.27
2016-04-07T07:00:00.298Z,73.13
2016-04-07T07:01:00.284Z,73.41
2016-04-07T07:02:00.271Z,73.99
2016-04-07T07:03:00.258Z,74.08
2016-04-07T07:04:00.276Z,73.8
2016-04-07T07:05:00.264Z,73.32
2016-04-07T07:06:00.282Z,73.51
2016-04-07T07:07:00.270Z,74.46
2016-04-07T07:08:00.272Z,73.89
2016-04-07T07:09:00.259Z,73.38
2016-04-07T07:10:00.262Z,71.89
2016-04-07T07:11:00.264Z,72.14
2016-04-07T07:12:00.267Z,72.46
2016-04-07T07:13:00.269Z,71.42
2016-04-07T07:14:00.256Z,70.27
2016-04-07T07:15:00.259Z,69.32
2016-04-07T07:16:00.247Z,69.79
2016-04-07T07:17:00.265Z,70.47
2016-04-07T07:18:00.252Z,68.75
2016-04-07T07:19:00.270Z,68.37
2016-04-07T07:20:00.272Z,66.85
2016-04-07T07:21:00.275Z,65.99
2016-04-07T07:22:00.263Z,67.67
2016-04-07T07:23:00.249Z,68.43
2016-04-07T07:24:00.268Z,68.15
2016-04-07T07:25:00.254Z,67.57
2016-04-07T07:26:00.257Z,67.1
2016-04-07T07:27:00.260Z,67.29
2016-04-07T07:28:00.248Z,68.24
2016-04-07T07:29:00.266Z,68.15
2016-04-07T07:30:00.253Z,67.1
2016-04-07T07:31:00.256Z,67.73
2016-04-07T07:32:00.258Z,68.62
2016-04-07T07:33:00.261Z,68.62
2016-04-07T07:34:00.254Z,68.52
2016-04-07T07:35:00.256Z,68.43
2016-04-07T07:36:00.259Z,68.15
2016-04-07T07:37:00.230Z,67.57
2016-04-07T07:38:00.249Z,68.24
2016-04-07T07:39:00.236Z,67.19
2016-04-07T07:40:00.259Z,67.38
2016-04-07T07:41:00.231Z,67
2016-04-07T07:42:00.233Z,67.1
2016-04-07T07:43:00.236Z,66.18
2016-04-07T07:44:00.239Z,67.89
2016-04-07T07:45:00.241Z,67.41
2016-04-07T07:46:00.228Z,67.89
2016-04-07T07:47:00.231Z,66.85
2016-04-07T07:48:00.250Z,67.7
2016-04-07T07:49:00.237Z,67.22
2016-04-07T07:50:00.239Z,67.41
2016-04-07T07:51:00.258Z,67.8
2016-04-07T07:52:00.244Z,67.41
2016-04-07T07:53:00.232Z,66.85
2016-04-07T07:54:00.249Z,65.89
2016-04-07T07:55:00.237Z,65.13
2016-04-07T07:56:00.240Z,65.8
2016-04-07T07:57:00.242Z,65.7
2016-04-07T07:58:00.245Z,65.8
2016-04-07T07:59:00.232Z,66.18
2016-04-07T08:00:00.251Z,66.37
2016-04-07T08:01:00.254Z,65.61
2016-04-07T08:02:00.224Z,65.51
2016-04-07T08:03:00.227Z,65.51
2016-04-07T08:04:00.230Z,66.46
2016-04-07T08:05:00.232Z,65.32
2016-04-07T08:06:00.235Z,65.32
2016-04-07T08:07:00.222Z,66.27
2016-04-07T08:08:00.240Z,66.18
2016-04-07T08:09:00.071Z,66.08
2016-04-07T08:10:00.231Z,64.94
2016-04-07T08:11:00.218Z,64.37
2016-04-07T08:12:00.220Z,64.69
2016-04-07T08:13:00.239Z,65.13
2016-04-07T08:14:00.225Z,64.84
2016-04-07T08:15:00.212Z,62.94
2016-04-07T08:16:00.215Z,63.51
2016-04-07T08:17:00.234Z,63.6
2016-04-07T08:18:00.221Z,63.51
2016-04-07T08:19:00.223Z,63.6
2016-04-07T08:20:00.320Z,63.7
2016-04-07T08:21:00.260Z,63.7
2016-04-07T08:22:00.216Z,65.32
2016-04-07T08:23:00.219Z,65.13
2016-04-07T08:24:00.221Z,63.6
2016-04-07T08:25:00.224Z,64.65
2016-04-07T08:26:00.210Z,63.51
2016-04-07T08:27:00.229Z,63.42
2016-04-07T08:28:00.232Z,62.08
2016-04-07T08:29:00.250Z,62.56
2016-04-07T08:30:00.222Z,62.37
2016-04-07T08:31:00.225Z,61.42
2016-04-07T08:32:00.212Z,60.94
2016-04-07T08:33:00.230Z,59.83
2016-04-07T08:34:00.217Z,60.46
2016-04-07T08:35:00.251Z,61.42
2016-04-07T08:36:00.222Z,60.56
2016-04-07T08:37:00.210Z,59.51
2016-04-07T08:38:00.229Z,59.42
2016-04-07T08:39:00.247Z,59.8
2016-04-07T08:40:00.234Z,59.35
2016-04-07T08:41:00.221Z,59.54
2016-04-07T08:42:00.224Z,58.59
2016-04-07T08:43:00.226Z,58.69
2016-04-07T08:44:00.229Z,59.51
2016-04-07T08:45:00.232Z,59.8
2016-04-07T08:46:00.250Z,60.11
2016-04-07T08:47:00.238Z,59.45
2016-04-07T08:48:00.224Z,59.35
2016-04-07T08:49:00.227Z,59.83
2016-04-07T08:50:00.229Z,57.64
2016-04-07T08:51:00.217Z,57.64
2016-04-07T08:52:00.234Z,57.64
2016-04-07T08:53:00.237Z,57.16
2016-04-07T08:54:00.271Z,55.54
2016-04-07T08:55:00.228Z,56.87
2016-04-07T08:56:00.808Z,55.16
2016-04-07T08:57:00.217Z,55.63
2016-04-07T08:58:00.220Z,55.07
2016-04-07T08:59:00.222Z,56.4
2016-04-07T09:00:00.225Z,56.3
2016-04-07T09:01:00.244Z,55.35
2016-04-07T09:02:00.231Z,56.02
2016-04-07T09:03:00.218Z,56.97
2016-04-07T09:04:00.236Z,56.78
2016-04-07T09:05:00.223Z,56.68
2016-04-07T09:06:00.225Z,56.4
2016-04-07T09:07:00.244Z,55.38
2016-04-07T09:08:12.968Z,55
2016-04-07T09:09:00.218Z,55.47
2016-04-07T09:10:00.268Z,55.19
2016-04-07T09:11:00.239Z,54.04
2016-04-07T09:12:00.241Z,52.42
2016-04-07T09:13:00.245Z,51.76
2016-04-07T09:14:00.232Z,52.83
2016-04-07T09:15:00.235Z,51.59
2016-04-07T09:16:00.237Z,52.16
2016-04-07T09:17:00.224Z,53.76
2016-04-07T09:18:00.227Z,52.64
2016-04-07T09:19:00.245Z,51.4
2016-04-07T09:20:00.248Z,54.04
2016-04-07T09:21:00.234Z,53.47
2016-04-07T09:22:00.238Z,53.31
2016-04-07T09:23:00.280Z,53.5
2016-04-07T09:24:00.319Z,52.8
2016-04-07T09:25:00.405Z,52.52
2016-04-07T09:26:00.381Z,53.66
2016-04-07T09:27:00.420Z,53.47
2016-04-07T09:28:00.444Z,53.76
2016-04-07T09:29:00.477Z,53.66
2016-04-07T09:30:00.460Z,53.47
2016-04-07T09:31:00.476Z,52.33
2016-04-07T09:32:00.492Z,53.28
2016-04-07T09:33:00.502Z,53.28
2016-04-07T09:34:00.494Z,53.38
2016-04-07T09:35:00.516Z,52.8
2016-04-07T09:36:00.508Z,53.21
2016-04-07T09:37:00.516Z,53.5
2016-04-07T09:38:00.536Z,53.97
2016-04-07T09:39:00.526Z,54.64
2016-04-07T09:40:00.609Z,55.41
2016-04-07T09:41:00.551Z,56.26
2016-04-07T09:42:00.524Z,55.38
2016-04-07T09:43:00.544Z,56.43
2016-04-07T09:44:00.547Z,56.74
2016-04-07T09:45:00.551Z,55.79
2016-04-07T09:46:00.554Z,55.69
2016-04-07T09:47:00.557Z,55.69
2016-04-07T09:48:00.544Z,56.17
2016-04-07T09:49:00.547Z,56.55
2016-04-07T09:50:00.550Z,55.5
2016-04-07T09:51:00.569Z,55.69
2016-04-07T09:52:00.540Z,55.6
2016-04-07T09:53:00.558Z,56.26
2016-04-07T09:54:00.560Z,55.5
2016-04-07T09:55:00.594Z,54.64
2016-04-07T09:56:00.551Z,54.55
2016-04-07T09:57:00.554Z,53.72
2016-04-07T09:58:00.556Z,53.62
2016-04-07T09:59:00.543Z,53.81
2016-04-07T10:00:00.562Z,53.81
2016-04-07T10:01:00.564Z,53.53
2016-04-07T10:02:00.567Z,52.38
2016-04-07T10:03:00.569Z,52.76
2016-04-07T10:04:00.572Z,52.67
2016-04-07T10:05:00.575Z,51.71
2016-04-07T10:06:00.562Z,50.85
2016-04-07T10:07:00.581Z,51.04
2016-04-07T10:08:00.584Z,52.19
2016-04-07T10:09:00.569Z,52.86
2016-04-07T10:10:00.759Z,53.5
2016-04-07T10:11:00.575Z,54.64
2016-04-07T10:12:00.594Z,54.83
2016-04-07T10:13:00.564Z,53.78
2016-04-07T10:14:00.583Z,53.12
2016-04-07T10:15:00.586Z,53.69
2016-04-07T10:16:00.572Z,53.78
2016-04-07T10:17:00.576Z,53.88
2016-04-07T10:18:00.578Z,53.78
2016-04-07T10:19:00.581Z,53.88
2016-04-07T10:20:00.584Z,54.17
2016-04-07T10:21:00.586Z,54.45
2016-04-07T10:22:00.589Z,53.59
2016-04-07T10:23:00.591Z,54.55
2016-04-07T10:24:00.595Z,54.07
2016-04-07T10:25:00.644Z,53.85
2016-04-07T10:26:00.600Z,54.52
2016-04-07T10:27:00.603Z,55
2016-04-07T10:28:00.590Z,55
2016-04-07T10:29:00.593Z,55.38
2016-04-07T10:30:00.595Z,55.09
2016-04-07T10:31:00.598Z,55.28
2016-04-07T10:32:00.600Z,56.62
2016-04-07T10:33:00.603Z,56.9
2016-04-07T10:34:00.590Z,57.28
2016-04-07T10:35:00.577Z,56.81
2016-04-07T10:36:00.612Z,57.28
2016-04-07T10:37:00.598Z,56.62
2016-04-07T10:38:00.601Z,56.43
2016-04-07T10:39:00.603Z,57.09
2016-04-07T10:40:00.731Z,59.83
2016-04-07T10:41:00.608Z,62.78
2016-04-07T10:42:00.595Z,65.92
2016-04-07T10:43:00.614Z,68.02
2016-04-07T10:44:00.601Z,69.51
2016-04-07T10:45:00.604Z,69.89
2016-04-07T10:46:00.592Z,71.22
2016-04-07T10:47:00.594Z,72.42
2016-04-07T10:48:00.597Z,73.1
2016-04-07T10:49:00.600Z,73.19
2016-04-07T10:50:00.430Z,74.04
2016-04-07T10:51:00.589Z,73.47
2016-04-07T10:52:00.608Z,74.04
2016-04-07T10:53:00.611Z,76.1
2016-04-07T10:54:00.597Z,76.01
2016-04-07T10:55:00.631Z,78
2016-04-07T10:56:00.602Z,78
2016-04-07T10:57:00.590Z,79.24
2016-04-07T10:58:00.608Z,79.14
2016-04-07T10:59:00.595Z,80.19
2016-04-07T11:00:00.582Z,79.81
2016-04-07T11:01:00.584Z,79.43
2016-04-07T11:02:00.587Z,79.72
2016-04-07T11:03:00.606Z,79.81
2016-04-07T11:04:00.609Z,78.67
2016-04-07T11:05:00.612Z,79.33
2016-04-07T11:06:00.582Z,79.62
2016-04-07T11:07:00.617Z,79.43
2016-04-07T11:08:00.587Z,78.19
2016-04-07T11:09:00.575Z,76.01
2016-04-07T11:10:00.577Z,76.1
2016-04-07T11:11:00.580Z,75.62
2016-04-07T11:12:00.583Z,76.29
2016-04-07T11:13:00.570Z,76.86
2016-04-07T11:14:00.573Z,76.48
2016-04-07T11:15:00.576Z,76.48
2016-04-07T11:16:00.562Z,75.72
2016-04-07T11:17:00.581Z,77.24
2016-04-07T11:18:00.583Z,78
2016-04-07T11:19:00.570Z,77.15
2016-04-07T11:20:00.558Z,75.62
2016-04-07T11:21:00.561Z,74.24
2016-04-07T11:22:00.564Z,73.85
2016-04-07T11:23:00.566Z,73.76
2016-04-07T11:24:00.569Z,73.47
2016-04-07T11:25:00.696Z,73.19
2016-04-07T11:26:00.574Z,72.9
2016-04-07T11:27:00.560Z,70.81
2016-04-07T11:28:00.563Z,71.47
2016-04-07T11:29:00.551Z,71.86
2016-04-07T11:30:00.569Z,70.81
2016-04-07T11:31:00.557Z,71.38
2016-04-07T11:32:00.574Z,70.33
2016-04-07T11:33:00.546Z,68.52
2016-04-07T11:34:00.565Z,69
2016-04-07T11:35:00.567Z,69.76
2016-04-07T11:36:00.554Z,69.57
2016-04-07T11:37:00.557Z,68.9
2016-04-07T11:38:00.559Z,68.05
2016-04-07T11:39:00.546Z,68.71
2016-04-07T11:40:00.721Z,66.81
2016-04-07T11:41:00.537Z,66.33
2016-04-07T11:42:00.554Z,66.81
2016-04-07T11:43:00.542Z,66.43
2016-04-07T11:44:00.560Z,66.27
2016-04-07T11:45:00.578Z,64.37
2016-04-07T11:46:00.550Z,63.42
2016-04-07T11:47:00.553Z,64.53
2016-04-07T11:48:00.539Z,63.99
2016-04-07T11:49:00.542Z,63.01
2016-04-07T11:50:00.529Z,63.48
2016-04-07T11:51:00.547Z,65.77
2016-04-07T11:52:00.550Z,65.1
2016-04-07T11:53:00.553Z,64.53
2016-04-07T11:54:00.555Z,64.18
2016-04-07T11:55:00.402Z,64.94
2016-04-07T11:56:00.545Z,63.13
2016-04-07T11:57:00.548Z,62.94
2016-04-07T11:58:00.550Z,63.13
2016-04-07T11:59:00.538Z,62.85
2016-04-07T12:00:00.541Z,62.94
2016-04-07T12:01:00.543Z,62.75
2016-04-07T12:02:00.530Z,63.13
2016-04-07T12:03:00.564Z,64.28
2016-04-07T12:04:00.535Z,65.03
2016-04-07T12:05:00.538Z,64.08
2016-04-07T12:06:00.526Z,62.27
2016-04-07T12:07:00.543Z,63.13
2016-04-07T12:08:00.546Z,62.46
2016-04-07T12:09:00.534Z,61.61
2016-04-07T12:10:00.551Z,61.42
2016-04-07T12:11:00.539Z,62.08
2016-04-07T12:12:00.525Z,62.18
2016-04-07T12:13:00.544Z,61.04
2016-04-07T12:14:00.531Z,61.04
2016-04-07T12:15:00.550Z,59.8
2016-04-07T12:16:00.553Z,61.42
2016-04-07T12:17:00.555Z,60.46
2016-04-07T12:18:00.558Z,59.16
2016-04-07T12:19:00.528Z,58.87
2016-04-07T12:20:00.516Z,58.59
2016-04-07T12:21:00.519Z,59.64
2016-04-07T12:22:00.536Z,58.5
2016-04-07T12:23:00.539Z,59.64
2016-04-07T12:24:00.526Z,57.73
2016-04-07T12:25:00.544Z,57.73
2016-04-07T12:26:00.532Z,56.78
2016-04-07T12:27:00.519Z,56.78
2016-04-07T12:28:00.538Z,56.4
2016-04-07T12:29:00.540Z,55
2016-04-07T12:30:00.527Z,55.38
2016-04-07T12:31:00.561Z,56.24
2016-04-07T12:32:00.532Z,53.66
2016-04-07T12:33:00.535Z,55.21
2016-04-07T12:34:00.537Z,55.19
2016-04-07T12:35:00.524Z,53.69
2016-04-07T12:36:00.527Z,54.36
2016-04-07T12:37:00.562Z,53.21
2016-04-07T12:38:00.533Z,53.59
2016-04-07T12:39:00.535Z,52.83
2016-04-07T12:40:00.538Z,52.83
2016-04-07T12:41:00.540Z,52.36
2016-04-07T12:42:00.543Z,52.83
2016-04-07T12:43:00.546Z,51.04
2016-04-07T12:44:00.565Z,48.57
2016-04-07T12:45:00.537Z,48.94
2016-04-07T12:46:00.554Z,50.28
2016-04-07T12:47:00.557Z,49.04
2016-04-07T12:48:00.559Z,47.42
2016-04-07T12:49:00.547Z,46.66
2016-04-07T12:50:00.549Z,46.18
2016-04-07T12:51:00.552Z,47.44
2016-04-07T12:52:00.570Z,44.29
2016-04-07T12:53:00.572Z,43.33
2016-04-07T12:54:00.576Z,43.79
2016-04-07T12:55:00.563Z,43.41
2016-04-07T12:56:00.566Z,42.84